Time,TemperatureF,DewpointF,PressureIn,WindDirection,WindDirectionDegrees,WindSpeedMPH,WindSpeedGustMPH,Humidity,HourlyPrecipIn,Conditions,Clouds,dailyrainin,SoftwareType,DateUTC
2013-06-11 00:02:00,63.0,51.0,29.82,West,273,16.0,24.0,64,0.00,,,0.00,,2013-06-11 06:02:00,
2013-06-11 00:12:00,63.0,51.0,29.82,West,273,16.0,24.0,64,0.00,,,0.00,,2013-06-11 06:12:00,
2013-06-11 00:22:00,63.0,51.0,29.83,North,360,6.0,18.0,64,0.00,,,0.00,,2013-06-11 06:22:00,
2013-06-11 00:32:00,60.0,50.0,29.83,NNW,327,8.0,11.0,69,0.00,,,0.00,,2013-06-11 06:32:00,
2013-06-11 00:42:00,60.0,50.0,29.83,NNW,327,8.0,11.0,69,0.00,,,0.00,,2013-06-11 06:42:00,
2013-06-11 00:52:00,60.0,50.0,29.82,NW,316,7.0,9.0,70,0.00,,,0.00,,2013-06-11 06:52:00,
2013-06-11 01:02:00,62.0,50.0,29.81,West,275,9.0,16.0,65,0.00,,,0.00,,2013-06-11 07:02:00,
2013-06-11 01:12:00,61.0,50.0,29.82,NNE,13,7.0,12.0,67,0.00,,,0.00,,2013-06-11 07:12:00,
2013-06-11 01:22:00,61.0,50.0,29.82,NNE,13,7.0,12.0,67,0.00,,,0.00,,2013-06-11 07:22:00,
2013-06-11 01:32:00,60.0,50.0,29.81,NW,325,11.0,15.0,70,0.00,,,0.00,,2013-06-11 07:32:00,
2013-06-11 01:42:00,59.0,50.0,29.82,ENE,77,0.0,9.0,72,0.00,,,0.00,,2013-06-11 07:42:00,
2013-06-11 01:52:00,59.0,50.0,29.82,ENE,77,0.0,9.0,72,0.00,,,0.00,,2013-06-11 07:52:00,
2013-06-11 02:02:00,59.0,49.0,29.81,ENE,77,0.0,0.0,70,0.00,,,0.00,,2013-06-11 08:02:00,
2013-06-11 02:11:00,59.0,49.0,29.81,ENE,77,0.0,0.0,70,0.00,,,0.00,,2013-06-11 08:11:00,
2013-06-11 02:22:00,59.0,50.0,29.83,ENE,77,0.0,0.0,71,0.00,,,0.00,,2013-06-11 08:22:00,
2013-06-11 02:32:00,60.0,51.0,29.83,NW,317,0.0,0.0,72,0.00,,,0.00,,2013-06-11 08:32:00,
2013-06-11 02:42:00,56.0,47.0,29.83,NNW,343,0.0,0.0,73,0.00,,,0.00,,2013-06-11 08:42:00,
2013-06-11 02:52:00,56.0,47.0,29.83,NNW,343,0.0,0.0,73,0.00,,,0.00,,2013-06-11 08:52:00,
2013-06-11 03:01:00,58.0,50.0,29.83,NW,321,0.0,0.0,76,0.00,,,0.00,,2013-06-11 09:01:00,
2013-06-11 03:11:00,58.0,50.0,29.83,NW,321,0.0,0.0,76,0.00,,,0.00,,2013-06-11 09:11:00,
2013-06-11 03:22:00,55.0,48.0,29.83,NNW,348,7.0,9.0,78,0.00,,,0.00,,2013-06-11 09:22:00,
2013-06-11 03:33:00,55.0,50.0,29.83,NW,307,9.0,12.0,83,0.00,,,0.00,,2013-06-11 09:33:00,
2013-06-11 03:43:00,55.0,50.0,29.83,NW,307,9.0,12.0,83,0.00,,,0.00,,2013-06-11 09:43:00,
2013-06-11 03:53:00,59.0,51.0,29.82,NNW,327,11.0,13.0,75,0.00,,,0.00,,2013-06-11 09:53:00,
2013-06-11 04:03:00,58.0,51.0,29.82,NW,325,11.0,14.0,77,0.00,,,0.00,,2013-06-11 10:03:00,
2013-06-11 04:12:00,58.0,51.0,29.82,NW,325,11.0,14.0,77,0.00,,,0.00,,2013-06-11 10:12:00,
2013-06-11 04:22:00,55.0,49.0,29.82,North,355,7.0,10.0,81,0.00,,,0.00,,2013-06-11 10:22:00,
2013-06-11 04:32:00,54.0,49.0,29.82,North,355,8.0,10.0,84,0.00,,,0.00,,2013-06-11 10:32:00,
2013-06-11 04:42:00,54.0,49.0,29.82,North,355,8.0,10.0,84,0.00,,,0.00,,2013-06-11 10:42:00,
2013-06-11 04:52:00,54.0,49.0,29.83,NNE,23,3.0,9.0,82,0.00,,,0.00,,2013-06-11 10:52:00,
2013-06-11 05:02:00,54.0,49.0,29.84,NNE,20,0.0,0.0,83,0.00,,,0.00,,2013-06-11 11:02:00,
2013-06-11 05:12:00,54.0,49.0,29.84,NNE,20,0.0,0.0,83,0.00,,,0.00,,2013-06-11 11:12:00,
2013-06-11 05:22:00,54.0,49.0,29.84,NW,313,6.0,10.0,84,0.00,,,0.00,,2013-06-11 11:22:00,
2013-06-11 05:32:00,55.0,50.0,29.84,NNW,327,8.0,10.0,82,0.00,,,0.00,,2013-06-11 11:32:00,
2013-06-11 05:41:00,55.0,50.0,29.84,NNW,327,8.0,10.0,82,0.00,,,0.00,,2013-06-11 11:41:00,
2013-06-11 05:52:00,54.0,49.0,29.85,NNW,338,7.0,10.0,83,0.00,,,0.00,,2013-06-11 11:52:00,
2013-06-11 06:01:00,53.0,49.0,29.85,NNW,327,7.0,8.0,86,0.00,,,0.00,,2013-06-11 12:01:00,
2013-06-11 06:12:00,55.0,50.0,29.85,NNW,329,7.0,9.0,84,0.00,,,0.00,,2013-06-11 12:12:00,
2013-06-11 06:22:00,55.0,50.0,29.85,NNW,329,7.0,9.0,84,0.00,,,0.00,,2013-06-11 12:22:00,
2013-06-11 06:32:00,54.0,49.0,29.85,NNW,340,7.0,9.0,84,0.00,,,0.00,,2013-06-11 12:32:00,
2013-06-11 06:42:00,56.0,51.0,29.85,North,351,6.0,10.0,83,0.00,,,0.00,,2013-06-11 12:42:00,
2013-06-11 06:52:00,56.0,51.0,29.85,North,351,6.0,10.0,83,0.00,,,0.00,,2013-06-11 12:52:00,
2013-06-11 07:02:00,57.0,51.0,29.85,North,355,2.0,7.0,80,0.00,,,0.00,,2013-06-11 13:02:00,
2013-06-11 07:11:00,57.0,51.0,29.85,North,355,2.0,7.0,80,0.00,,,0.00,,2013-06-11 13:11:00,
2013-06-11 07:22:00,57.0,52.0,29.85,NNW,333,6.0,9.0,82,0.00,,,0.00,,2013-06-11 13:22:00,
2013-06-11 07:32:00,59.0,52.0,29.85,NNW,336,7.0,9.0,79,0.00,,,0.00,,2013-06-11 13:32:00,
2013-06-11 07:42:00,59.0,52.0,29.85,NNW,336,7.0,9.0,79,0.00,,,0.00,,2013-06-11 13:42:00,
2013-06-11 07:52:00,61.0,54.0,29.84,NNW,344,5.0,9.0,77,0.00,,,0.00,,2013-06-11 13:52:00,
2013-06-11 08:02:00,63.0,54.0,29.84,NW,316,7.0,9.0,73,0.00,,,0.00,,2013-06-11 14:02:00,
2013-06-11 08:22:00,64.0,54.0,29.84,North,350,7.0,8.0,69,0.00,,,0.00,,2013-06-11 14:22:00,
2013-06-11 08:32:00,65.0,53.0,29.84,NNW,342,4.0,6.0,66,0.00,,,0.00,,2013-06-11 14:32:00,
2013-06-11 08:42:00,65.0,53.0,29.84,NNW,342,4.0,6.0,66,0.00,,,0.00,,2013-06-11 14:42:00,
2013-06-11 08:53:00,67.0,54.0,29.84,NW,316,1.0,6.0,62,0.00,,,0.00,,2013-06-11 14:53:00,
2013-06-11 09:02:00,68.0,53.0,29.84,SSE,161,0.0,6.0,58,0.00,,,0.00,,2013-06-11 15:02:00,
2013-06-11 09:12:00,68.0,53.0,29.84,SSE,161,0.0,6.0,58,0.00,,,0.00,,2013-06-11 15:12:00,
2013-06-11 09:22:00,69.0,53.0,29.83,SSE,162,0.0,0.0,57,0.00,,,0.00,,2013-06-11 15:22:00,
2013-06-11 09:32:00,69.0,53.0,29.83,SSE,159,0.0,0.0,56,0.00,,,0.00,,2013-06-11 15:32:00,
2013-06-11 09:42:00,69.0,53.0,29.83,SSE,159,0.0,0.0,56,0.00,,,0.00,,2013-06-11 15:42:00,
2013-06-11 09:53:00,70.0,53.0,29.83,SSE,157,0.0,0.0,54,0.00,,,0.00,,2013-06-11 15:53:00,
2013-06-11 10:02:00,70.0,52.0,29.83,ESE,122,0.0,5.0,53,0.00,,,0.00,,2013-06-11 16:02:00,
2013-06-11 10:12:00,70.0,52.0,29.83,ESE,122,0.0,5.0,53,0.00,,,0.00,,2013-06-11 16:12:00,
2013-06-11 10:22:00,70.0,54.0,29.82,SE,131,0.0,0.0,56,0.00,,,0.00,,2013-06-11 16:22:00,
2013-06-11 10:32:00,70.0,53.0,29.82,SSE,149,2.0,7.0,55,0.00,,,0.00,,2013-06-11 16:32:00,
2013-06-11 10:42:00,71.0,54.0,29.81,ESE,115,4.0,8.0,54,0.00,,,0.00,,2013-06-11 16:42:00,
2013-06-11 10:52:00,71.0,54.0,29.81,ESE,115,4.0,8.0,54,0.00,,,0.00,,2013-06-11 16:52:00,
2013-06-11 11:02:00,71.0,53.0,29.80,SE,137,5.0,8.0,53,0.00,,,0.00,,2013-06-11 17:02:00,
2013-06-11 11:12:00,71.0,53.0,29.80,SE,137,5.0,8.0,53,0.00,,,0.00,,2013-06-11 17:12:00,
2013-06-11 11:22:00,72.0,53.0,29.81,SE,145,6.0,9.0,52,0.00,,,0.00,,2013-06-11 17:22:00,
2013-06-11 11:32:00,72.0,52.0,29.80,ESE,116,3.0,10.0,50,0.00,,,0.00,,2013-06-11 17:32:00,
2013-06-11 11:42:00,74.0,55.0,29.80,SE,146,6.0,11.0,51,0.00,,,0.00,,2013-06-11 17:42:00,
2013-06-11 11:52:00,74.0,55.0,29.80,SE,146,6.0,11.0,51,0.00,,,0.00,,2013-06-11 17:52:00,
2013-06-11 12:02:00,75.0,56.0,29.79,ESE,116,2.0,10.0,51,0.00,,,0.00,,2013-06-11 18:02:00,
2013-06-11 12:11:00,75.0,56.0,29.79,ESE,116,2.0,10.0,51,0.00,,,0.00,,2013-06-11 18:11:00,
2013-06-11 12:22:00,77.0,55.0,29.79,South,181,2.0,8.0,46,0.00,,,0.00,,2013-06-11 18:22:00,
2013-06-11 12:32:00,77.0,54.0,29.78,SSE,163,0.0,2.0,45,0.00,,,0.00,,2013-06-11 18:32:00,
2013-06-11 12:42:00,77.0,54.0,29.78,SSE,163,0.0,2.0,45,0.00,,,0.00,,2013-06-11 18:42:00,
2013-06-11 12:52:00,78.0,52.0,29.79,South,188,4.0,10.0,41,0.00,,,0.00,,2013-06-11 18:52:00,
2013-06-11 13:01:00,77.0,53.0,29.78,SE,134,1.0,6.0,43,0.00,,,0.00,,2013-06-11 19:01:00,
2013-06-11 13:11:00,77.0,53.0,29.78,SE,134,1.0,6.0,43,0.00,,,0.00,,2013-06-11 19:11:00,
2013-06-11 13:22:00,77.0,53.0,29.78,SE,134,0.0,0.0,43,0.00,,,0.00,,2013-06-11 19:22:00,
2013-06-11 13:32:00,78.0,52.0,29.79,SSW,202,1.0,6.0,40,0.00,,,0.00,,2013-06-11 19:32:00,
2013-06-11 13:42:00,78.0,52.0,29.79,SSW,202,1.0,6.0,40,0.00,,,0.00,,2013-06-11 19:42:00,
2013-06-11 13:52:00,78.0,54.0,29.77,NE,41,8.0,10.0,43,0.00,,,0.00,,2013-06-11 19:52:00,
2013-06-11 14:02:00,78.0,52.0,29.82,WSW,240,6.0,14.0,41,0.00,,,0.00,,2013-06-11 20:02:00,
2013-06-11 14:12:00,78.0,52.0,29.82,WSW,240,6.0,14.0,41,0.00,,,0.00,,2013-06-11 20:12:00,
2013-06-11 14:21:00,73.0,56.0,29.82,WNW,301,24.0,31.0,55,0.00,,,0.00,,2013-06-11 20:21:00,
2013-06-11 14:32:00,72.0,58.0,29.82,NNW,327,21.0,26.0,61,0.00,,,0.00,,2013-06-11 20:32:00,
2013-06-11 14:42:00,72.0,58.0,29.82,NNW,327,21.0,26.0,61,0.00,,,0.00,,2013-06-11 20:42:00,
2013-06-11 14:52:00,72.0,57.0,29.82,NNW,339,21.0,26.0,60,0.00,,,0.00,,2013-06-11 20:52:00,
2013-06-11 15:02:00,73.0,56.0,29.81,NNW,343,15.0,23.0,55,0.00,,,0.00,,2013-06-11 21:02:00,
2013-06-11 15:12:00,73.0,56.0,29.81,NNW,343,15.0,23.0,55,0.00,,,0.00,,2013-06-11 21:12:00,
2013-06-11 15:22:00,74.0,55.0,29.81,NNW,344,15.0,21.0,52,0.00,,,0.00,,2013-06-11 21:22:00,
2013-06-11 15:32:00,74.0,54.0,29.82,NW,311,15.0,22.0,49,0.00,,,0.00,,2013-06-11 21:32:00,
2013-06-11 15:42:00,74.0,54.0,29.82,NW,311,15.0,22.0,49,0.00,,,0.00,,2013-06-11 21:42:00,
2013-06-11 15:53:00,74.0,51.0,29.84,WNW,285,14.0,20.0,45,0.00,,,0.00,,2013-06-11 21:53:00,
2013-06-11 16:03:00,72.0,46.0,29.86,WNW,284,23.0,32.0,40,0.00,,,0.00,,2013-06-11 22:03:00,
2013-06-11 16:12:00,72.0,46.0,29.86,WNW,284,23.0,32.0,40,0.00,,,0.00,,2013-06-11 22:12:00,
2013-06-11 16:22:00,73.0,44.0,29.86,West,279,29.0,42.0,36,0.00,,,0.00,,2013-06-11 22:22:00,
2013-06-11 16:32:00,71.0,45.0,29.84,NNW,328,8.0,28.0,40,0.00,,,0.00,,2013-06-11 22:32:00,
2013-06-11 16:42:00,71.0,45.0,29.84,NNW,328,8.0,28.0,40,0.00,,,0.00,,2013-06-11 22:42:00,
2013-06-11 16:52:00,72.0,46.0,29.83,NW,316,1.0,10.0,40,0.00,,,0.00,,2013-06-11 22:52:00,
2013-06-11 17:02:00,74.0,46.0,29.82,SW,235,0.0,0.0,37,0.00,,,0.00,,2013-06-11 23:02:00,
2013-06-11 17:11:00,74.0,46.0,29.82,SW,235,0.0,0.0,37,0.00,,,0.00,,2013-06-11 23:11:00,
2013-06-11 17:22:00,76.0,46.0,29.82,South,175,0.0,0.0,34,0.00,,,0.00,,2013-06-11 23:22:00,
2013-06-11 17:32:00,77.0,44.0,29.83,ESE,122,3.0,7.0,31,0.00,,,0.00,,2013-06-11 23:32:00,
2013-06-11 17:42:00,77.0,44.0,29.83,ESE,122,3.0,7.0,31,0.00,,,0.00,,2013-06-11 23:42:00,
2013-06-11 17:52:00,77.0,44.0,29.82,SE,125,1.0,10.0,31,0.00,,,0.00,,2013-06-11 23:52:00,
2013-06-11 18:02:00,78.0,45.0,29.82,SW,223,11.0,18.0,31,0.00,,,0.00,,2013-06-12 00:02:00,
2013-06-11 18:12:00,77.0,44.0,29.82,SW,223,6.0,12.0,31,0.00,,,0.00,,2013-06-12 00:12:00,
2013-06-11 18:22:00,77.0,44.0,29.82,SW,223,6.0,12.0,31,0.00,,,0.00,,2013-06-12 00:22:00,
2013-06-11 18:32:00,77.0,44.0,29.83,SW,222,7.0,12.0,31,0.00,,,0.00,,2013-06-12 00:32:00,
2013-06-11 18:42:00,77.0,44.0,29.83,SW,222,7.0,12.0,31,0.00,,,0.00,,2013-06-12 00:42:00,
2013-06-11 18:52:00,78.0,44.0,29.83,SSW,194,4.0,9.0,30,0.00,,,0.00,,2013-06-12 00:52:00,
2013-06-11 19:02:00,78.0,44.0,29.84,SW,236,3.0,7.0,30,0.00,,,0.00,,2013-06-12 01:02:00,
2013-06-11 19:11:00,78.0,44.0,29.84,SW,236,3.0,7.0,30,0.00,,,0.00,,2013-06-12 01:11:00,
2013-06-11 19:22:00,73.0,54.0,29.84,NNW,327,16.0,21.0,51,0.00,,,0.00,,2013-06-12 01:22:00,
2013-06-11 19:32:00,74.0,55.0,29.84,NW,314,15.0,23.0,52,0.00,,,0.00,,2013-06-12 01:32:00,
2013-06-11 19:42:00,74.0,55.0,29.84,NW,314,15.0,23.0,52,0.00,,,0.00,,2013-06-12 01:42:00,
2013-06-11 19:52:00,73.0,55.0,29.86,WNW,294,14.0,19.0,53,0.00,,,0.00,,2013-06-12 01:52:00,
2013-06-11 20:02:00,72.0,55.0,29.87,WNW,287,17.0,22.0,56,0.00,,,0.00,,2013-06-12 02:02:00,
2013-06-11 20:12:00,72.0,55.0,29.87,WNW,287,17.0,22.0,56,0.00,,,0.00,,2013-06-12 02:12:00,
2013-06-11 20:22:00,69.0,54.0,29.89,WNW,301,30.0,38.0,59,0.00,,,0.00,,2013-06-12 02:22:00,
2013-06-11 20:32:00,64.0,52.0,29.92,NW,316,39.0,54.0,65,0.00,,,0.00,,2013-06-12 02:32:00,
2013-06-11 20:42:00,61.0,52.0,29.94,NNW,346,30.0,41.0,73,0.00,,,0.00,,2013-06-12 02:42:00,
2013-06-11 20:52:00,61.0,52.0,29.94,NNW,346,30.0,41.0,73,0.00,,,0.00,,2013-06-12 02:52:00,
2013-06-11 21:01:00,60.0,50.0,29.95,NNW,329,29.0,38.0,70,0.00,,,0.00,,2013-06-12 03:01:00,
2013-06-11 21:22:00,61.0,50.0,29.93,NW,316,18.0,35.0,66,0.00,,,0.00,,2013-06-12 03:22:00,
2013-06-11 21:32:00,64.0,48.0,29.92,NNW,331,11.0,31.0,56,0.00,,,0.00,,2013-06-12 03:32:00,
2013-06-11 21:42:00,64.0,48.0,29.92,NNW,331,11.0,31.0,56,0.00,,,0.00,,2013-06-12 03:42:00,
2013-06-11 21:53:00,66.0,48.0,29.94,West,276,15.0,19.0,53,0.00,,,0.00,,2013-06-12 03:53:00,
2013-06-11 22:02:00,63.0,49.0,29.94,WNW,300,21.0,28.0,61,0.00,,,0.00,,2013-06-12 04:02:00,
2013-06-11 22:12:00,63.0,49.0,29.94,WNW,300,21.0,28.0,61,0.00,,,0.00,,2013-06-12 04:12:00,
2013-06-11 22:22:00,62.0,51.0,29.94,West,274,23.0,27.0,66,0.00,,,0.00,,2013-06-12 04:22:00,
2013-06-11 22:33:00,61.0,50.0,29.95,WNW,286,22.0,29.0,68,0.00,,,0.00,,2013-06-12 04:33:00,
2013-06-11 22:42:00,61.0,50.0,29.95,WNW,286,22.0,29.0,68,0.00,,,0.00,,2013-06-12 04:42:00,
2013-06-11 22:52:00,59.0,51.0,29.96,West,271,23.0,30.0,74,0.00,,,0.00,,2013-06-12 04:52:00,
2013-06-11 23:02:00,58.0,52.0,29.96,NW,304,23.0,32.0,79,0.00,,,0.00,,2013-06-12 05:02:00,
2013-06-11 23:12:00,57.0,52.0,29.98,WNW,286,29.0,38.0,82,0.00,,,0.00,,2013-06-12 05:12:00,
2013-06-11 23:22:00,57.0,52.0,29.98,WNW,286,29.0,38.0,82,0.00,,,0.00,,2013-06-12 05:22:00,
2013-06-11 23:32:00,58.0,53.0,30.01,WNW,294,24.0,33.0,83,0.00,,,0.00,,2013-06-12 05:32:00,
2013-06-11 23:42:00,58.0,52.0,30.03,NW,321,20.0,29.0,81,0.00,,,0.00,,2013-06-12 05:42:00,
2013-06-11 23:52:00,58.0,52.0,30.03,NW,321,20.0,29.0,81,0.00,,,0.00,,2013-06-12 05:52:00,